sensor_id;sensor_type;location;lat;lon;timestamp;temperature;humidity
21770;DHT22;11046;49.558;8.674;2023-12-28T00:02:41;7.50;96.90
21770;DHT22;11046;49.558;8.674;2023-12-28T00:05:47;7.60;96.90
21770;DHT22;11046;49.558;8.674;2023-12-28T00:08:50;7.60;96.60
21770;DHT22;11046;49.558;8.674;2023-12-28T00:11:51;7.60;96.60
21770;DHT22;11046;49.558;8.674;2023-12-28T00:14:55;7.60;96.60
21770;DHT22;11046;49.558;8.674;2023-12-28T00:17:55;7.60;96.60
21770;DHT22;11046;49.558;8.674;2023-12-28T00:20:58;7.60;96.60
21770;DHT22;11046;49.558;8.674;2023-12-28T00:24:01;7.50;96.60
21770;DHT22;11046;49.558;8.674;2023-12-28T00:27:01;7.50;96.50
21770;DHT22;11046;49.558;8.674;2023-12-28T00:30:02;7.60;96.50
21770;DHT22;11046;49.558;8.674;2023-12-28T00:33:06;7.60;96.40
21770;DHT22;11046;49.558;8.674;2023-12-28T00:36:15;7.60;96.30
21770;DHT22;11046;49.558;8.674;2023-12-28T00:39:20;7.60;96.10
21770;DHT22;11046;49.558;8.674;2023-12-28T00:42:21;7.50;96.00
21770;DHT22;11046;49.558;8.674;2023-12-28T00:45:21;7.50;96.00
21770;DHT22;11046;49.558;8.674;2023-12-28T00:48:24;7.50;95.90
21770;DHT22;11046;49.558;8.674;2023-12-28T00:51:25;7.60;95.70
21770;DHT22;11046;49.558;8.674;2023-12-28T00:54:35;7.70;95.60
21770;DHT22;11046;49.558;8.674;2023-12-28T00:57:39;7.70;95.50
21770;DHT22;11046;49.558;8.674;2023-12-28T01:00:43;7.60;95.40
21770;DHT22;11046;49.558;8.674;2023-12-28T01:03:50;7.70;95.30
21770;DHT22;11046;49.558;8.674;2023-12-28T01:06:54;7.70;94.90
21770;DHT22;11046;49.558;8.674;2023-12-28T01:10:00;7.70;95.20
21770;DHT22;11046;49.558;8.674;2023-12-28T01:13:00;7.80;95.00
21770;DHT22;11046;49.558;8.674;2023-12-28T01:16:01;7.80;95.00
21770;DHT22;11046;49.558;8.674;2023-12-28T01:19:08;7.90;94.90
21770;DHT22;11046;49.558;8.674;2023-12-28T01:22:08;7.90;94.80
21770;DHT22;11046;49.558;8.674;2023-12-28T01:25:10;7.90;94.60
21770;DHT22;11046;49.558;8.674;2023-12-28T01:28:13;7.90;94.70
21770;DHT22;11046;49.558;8.674;2023-12-28T01:31:13;7.90;94.60
21770;DHT22;11046;49.558;8.674;2023-12-28T01:34:18;7.90;94.70
21770;DHT22;11046;49.558;8.674;2023-12-28T01:37:18;7.80;94.80
21770;DHT22;11046;49.558;8.674;2023-12-28T01:40:19;7.70;94.80
21770;DHT22;11046;49.558;8.674;2023-12-28T01:43:20;7.70;94.90
21770;DHT22;11046;49.558;8.674;2023-12-28T01:46:21;7.70;95.00
21770;DHT22;11046;49.558;8.674;2023-12-28T01:49:23;7.70;94.80
21770;DHT22;11046;49.558;8.674;2023-12-28T01:52:24;7.90;94.80
21770;DHT22;11046;49.558;8.674;2023-12-28T01:55:30;8.00;94.60
21770;DHT22;11046;49.558;8.674;2023-12-28T01:58:33;8.00;94.50
21770;DHT22;11046;49.558;8.674;2023-12-28T02:01:38;8.10;94.40
21770;DHT22;11046;49.558;8.674;2023-12-28T02:04:41;8.20;94.40
21770;DHT22;11046;49.558;8.674;2023-12-28T02:07:42;8.20;94.10
21770;DHT22;11046;49.558;8.674;2023-12-28T02:10:44;8.40;94.20
21770;DHT22;11046;49.558;8.674;2023-12-28T02:13:45;8.40;94.20
21770;DHT22;11046;49.558;8.674;2023-12-28T02:17:10;8.40;94.00
21770;DHT22;11046;49.558;8.674;2023-12-28T02:20:18;8.40;93.80
21770;DHT22;11046;49.558;8.674;2023-12-28T02:23:24;8.50;93.90
21770;DHT22;11046;49.558;8.674;2023-12-28T02:26:28;8.60;93.90
21770;DHT22;11046;49.558;8.674;2023-12-28T02:29:30;8.50;93.40
21770;DHT22;11046;49.558;8.674;2023-12-28T02:36:13;8.50;93.50
21770;DHT22;11046;49.558;8.674;2023-12-28T02:39:25;8.60;93.60
21770;DHT22;11046;49.558;8.674;2023-12-28T02:42:32;8.60;93.50
21770;DHT22;11046;49.558;8.674;2023-12-28T02:45:35;8.60;93.50
21770;DHT22;11046;49.558;8.674;2023-12-28T02:48:38;8.60;94.00
21770;DHT22;11046;49.558;8.674;2023-12-28T02:51:42;8.60;93.50
21770;DHT22;11046;49.558;8.674;2023-12-28T02:54:45;8.70;93.50
21770;DHT22;11046;49.558;8.674;2023-12-28T02:57:54;8.70;93.40
21770;DHT22;11046;49.558;8.674;2023-12-28T03:01:01;8.80;93.40
21770;DHT22;11046;49.558;8.674;2023-12-28T03:04:01;8.80;93.40
21770;DHT22;11046;49.558;8.674;2023-12-28T03:07:02;8.80;93.40
21770;DHT22;11046;49.558;8.674;2023-12-28T03:10:12;8.80;93.30
21770;DHT22;11046;49.558;8.674;2023-12-28T03:13:13;8.80;93.20
21770;DHT22;11046;49.558;8.674;2023-12-28T03:16:14;8.90;93.30
21770;DHT22;11046;49.558;8.674;2023-12-28T03:19:14;8.90;93.20
21770;DHT22;11046;49.558;8.674;2023-12-28T03:22:15;8.90;93.20
21770;DHT22;11046;49.558;8.674;2023-12-28T03:25:23;8.90;93.20
21770;DHT22;11046;49.558;8.674;2023-12-28T03:28:27;8.80;93.30
21770;DHT22;11046;49.558;8.674;2023-12-28T03:31:28;8.80;93.40
21770;DHT22;11046;49.558;8.674;2023-12-28T03:34:29;8.70;93.60
21770;DHT22;11046;49.558;8.674;2023-12-28T03:37:32;8.70;93.80
21770;DHT22;11046;49.558;8.674;2023-12-28T03:40:32;8.60;93.90
21770;DHT22;11046;49.558;8.674;2023-12-28T03:43:33;8.60;94.00
21770;DHT22;11046;49.558;8.674;2023-12-28T03:46:34;8.60;94.00
21770;DHT22;11046;49.558;8.674;2023-12-28T03:49:40;8.60;93.90
21770;DHT22;11046;49.558;8.674;2023-12-28T03:52:46;8.70;94.00
21770;DHT22;11046;49.558;8.674;2023-12-28T03:55:47;8.60;93.90
21770;DHT22;11046;49.558;8.674;2023-12-28T03:58:48;8.70;94.00
21770;DHT22;11046;49.558;8.674;2023-12-28T04:01:49;8.70;94.00
21770;DHT22;11046;49.558;8.674;2023-12-28T04:04:51;8.70;94.10
21770;DHT22;11046;49.558;8.674;2023-12-28T04:07:52;8.60;94.20
21770;DHT22;11046;49.558;8.674;2023-12-28T04:10:57;8.70;94.30
21770;DHT22;11046;49.558;8.674;2023-12-28T04:13:58;8.60;94.40
21770;DHT22;11046;49.558;8.674;2023-12-28T04:16:58;8.50;94.60
21770;DHT22;11046;49.558;8.674;2023-12-28T04:19:59;8.40;94.80
21770;DHT22;11046;49.558;8.674;2023-12-28T04:23:00;8.40;95.00
21770;DHT22;11046;49.558;8.674;2023-12-28T04:26:03;8.40;95.10
21770;DHT22;11046;49.558;8.674;2023-12-28T04:29:04;8.40;95.10
21770;DHT22;11046;49.558;8.674;2023-12-28T04:32:05;8.50;95.20
21770;DHT22;11046;49.558;8.674;2023-12-28T04:35:06;8.50;95.30
21770;DHT22;11046;49.558;8.674;2023-12-28T04:38:12;8.50;95.50
21770;DHT22;11046;49.558;8.674;2023-12-28T04:41:13;8.50;95.60
21770;DHT22;11046;49.558;8.674;2023-12-28T04:44:17;8.50;95.70
21770;DHT22;11046;49.558;8.674;2023-12-28T04:47:20;8.50;95.90
21770;DHT22;11046;49.558;8.674;2023-12-28T04:50:21;8.50;95.90
21770;DHT22;11046;49.558;8.674;2023-12-28T04:53:23;8.50;95.90
21770;DHT22;11046;49.558;8.674;2023-12-28T04:56:24;8.60;96.00
21770;DHT22;11046;49.558;8.674;2023-12-28T04:59:25;8.60;96.10
21770;DHT22;11046;49.558;8.674;2023-12-28T05:02:26;8.60;96.10
21770;DHT22;11046;49.558;8.674;2023-12-28T05:05:28;8.60;96.20
21770;DHT22;11046;49.558;8.674;2023-12-28T05:08:29;8.70;96.40
21770;DHT22;11046;49.558;8.674;2023-12-28T05:11:32;8.70;96.80
21770;DHT22;11046;49.558;8.674;2023-12-28T05:14:33;8.70;96.60
21770;DHT22;11046;49.558;8.674;2023-12-28T05:17:34;8.70;96.70
21770;DHT22;11046;49.558;8.674;2023-12-28T05:20:35;8.80;96.80
21770;DHT22;11046;49.558;8.674;2023-12-28T05:23:38;8.70;96.90
21770;DHT22;11046;49.558;8.674;2023-12-28T05:26:39;8.70;97.10
21770;DHT22;11046;49.558;8.674;2023-12-28T05:29:42;8.70;97.30
21770;DHT22;11046;49.558;8.674;2023-12-28T05:32:43;8.70;97.50
21770;DHT22;11046;49.558;8.674;2023-12-28T05:35:43;8.60;98.00
21770;DHT22;11046;49.558;8.674;2023-12-28T05:38:44;8.70;98.00
21770;DHT22;11046;49.558;8.674;2023-12-28T05:41:45;8.70;98.10
21770;DHT22;11046;49.558;8.674;2023-12-28T05:44:48;8.70;98.40
21770;DHT22;11046;49.558;8.674;2023-12-28T05:47:48;8.70;99.00
21770;DHT22;11046;49.558;8.674;2023-12-28T05:50:49;8.70;99.10
21770;DHT22;11046;49.558;8.674;2023-12-28T05:53:50;8.70;99.50
21770;DHT22;11046;49.558;8.674;2023-12-28T05:56:51;8.70;99.80
21770;DHT22;11046;49.558;8.674;2023-12-28T05:59:54;8.70;99.90
21770;DHT22;11046;49.558;8.674;2023-12-28T06:02:54;8.70;99.90
21770;DHT22;11046;49.558;8.674;2023-12-28T06:05:58;8.70;99.90
21770;DHT22;11046;49.558;8.674;2023-12-28T06:08:59;8.70;99.90
21770;DHT22;11046;49.558;8.674;2023-12-28T06:11:59;8.60;99.90
21770;DHT22;11046;49.558;8.674;2023-12-28T06:15:00;8.60;99.90
21770;DHT22;11046;49.558;8.674;2023-12-28T06:18:01;8.60;99.90
21770;DHT22;11046;49.558;8.674;2023-12-28T06:21:03;8.60;99.90
21770;DHT22;11046;49.558;8.674;2023-12-28T06:24:08;8.60;99.90
21770;DHT22;11046;49.558;8.674;2023-12-28T06:27:09;8.50;99.90
21770;DHT22;11046;49.558;8.674;2023-12-28T06:30:12;8.60;99.90
21770;DHT22;11046;49.558;8.674;2023-12-28T06:33:13;8.60;99.90
21770;DHT22;11046;49.558;8.674;2023-12-28T06:36:17;8.60;99.90
21770;DHT22;11046;49.558;8.674;2023-12-28T06:39:19;8.60;99.90
21770;DHT22;11046;49.558;8.674;2023-12-28T06:42:20;8.60;99.90
21770;DHT22;11046;49.558;8.674;2023-12-28T06:45:20;8.50;99.90
21770;DHT22;11046;49.558;8.674;2023-12-28T06:48:29;8.50;99.90
21770;DHT22;11046;49.558;8.674;2023-12-28T06:51:32;8.50;99.90
21770;DHT22;11046;49.558;8.674;2023-12-28T06:54:35;8.50;99.90
21770;DHT22;11046;49.558;8.674;2023-12-28T06:57:36;8.50;99.90
21770;DHT22;11046;49.558;8.674;2023-12-28T07:00:37;8.60;99.90
21770;DHT22;11046;49.558;8.674;2023-12-28T07:03:38;8.50;99.90
21770;DHT22;11046;49.558;8.674;2023-12-28T07:06:38;8.50;99.90
21770;DHT22;11046;49.558;8.674;2023-12-28T07:09:39;8.50;99.90
21770;DHT22;11046;49.558;8.674;2023-12-28T07:12:43;8.50;99.90
21770;DHT22;11046;49.558;8.674;2023-12-28T07:15:47;8.50;99.90
21770;DHT22;11046;49.558;8.674;2023-12-28T07:18:48;8.60;99.90
21770;DHT22;11046;49.558;8.674;2023-12-28T07:21:48;8.60;99.90
21770;DHT22;11046;49.558;8.674;2023-12-28T07:24:52;8.60;99.90
21770;DHT22;11046;49.558;8.674;2023-12-28T07:27:53;8.60;99.90
21770;DHT22;11046;49.558;8.674;2023-12-28T07:30:59;8.60;99.90
21770;DHT22;11046;49.558;8.674;2023-12-28T07:34:00;8.70;99.90
21770;DHT22;11046;49.558;8.674;2023-12-28T07:37:01;8.70;99.90
21770;DHT22;11046;49.558;8.674;2023-12-28T07:40:07;8.60;99.90
21770;DHT22;11046;49.558;8.674;2023-12-28T07:43:14;8.50;99.90
21770;DHT22;11046;49.558;8.674;2023-12-28T07:46:17;8.60;99.90
21770;DHT22;11046;49.558;8.674;2023-12-28T07:49:25;8.60;99.90
21770;DHT22;11046;49.558;8.674;2023-12-28T07:52:39;8.70;99.90
21770;DHT22;11046;49.558;8.674;2023-12-28T07:55:40;8.70;99.90
21770;DHT22;11046;49.558;8.674;2023-12-28T07:58:43;8.70;99.90
21770;DHT22;11046;49.558;8.674;2023-12-28T08:01:44;8.70;99.90
21770;DHT22;11046;49.558;8.674;2023-12-28T08:04:46;8.70;99.90
21770;DHT22;11046;49.558;8.674;2023-12-28T08:07:49;8.70;99.90
21770;DHT22;11046;49.558;8.674;2023-12-28T08:10:56;8.70;99.90
21770;DHT22;11046;49.558;8.674;2023-12-28T08:13:57;8.70;99.90
21770;DHT22;11046;49.558;8.674;2023-12-28T08:17:03;8.70;99.90
21770;DHT22;11046;49.558;8.674;2023-12-28T08:20:07;8.80;99.90
21770;DHT22;11046;49.558;8.674;2023-12-28T08:23:08;8.80;99.90
21770;DHT22;11046;49.558;8.674;2023-12-28T08:26:09;8.80;99.90
21770;DHT22;11046;49.558;8.674;2023-12-28T08:29:15;8.80;99.90
21770;DHT22;11046;49.558;8.674;2023-12-28T08:32:19;8.90;99.90
21770;DHT22;11046;49.558;8.674;2023-12-28T08:35:22;8.90;99.90
21770;DHT22;11046;49.558;8.674;2023-12-28T08:38:31;8.90;99.90
21770;DHT22;11046;49.558;8.674;2023-12-28T08:41:34;8.90;99.90
21770;DHT22;11046;49.558;8.674;2023-12-28T08:44:38;8.90;99.90
21770;DHT22;11046;49.558;8.674;2023-12-28T08:47:40;9.00;99.90
21770;DHT22;11046;49.558;8.674;2023-12-28T08:50:43;9.00;99.90
21770;DHT22;11046;49.558;8.674;2023-12-28T08:53:44;9.10;99.90
21770;DHT22;11046;49.558;8.674;2023-12-28T08:56:44;9.10;99.90
21770;DHT22;11046;49.558;8.674;2023-12-28T08:59:45;9.10;99.90
21770;DHT22;11046;49.558;8.674;2023-12-28T09:02:46;9.20;99.90
21770;DHT22;11046;49.558;8.674;2023-12-28T09:05:53;9.20;99.90
21770;DHT22;11046;49.558;8.674;2023-12-28T09:08:54;9.30;99.90
21770;DHT22;11046;49.558;8.674;2023-12-28T09:11:55;9.30;99.90
21770;DHT22;11046;49.558;8.674;2023-12-28T09:14:56;9.30;99.90
21770;DHT22;11046;49.558;8.674;2023-12-28T09:17:56;9.40;99.90
21770;DHT22;11046;49.558;8.674;2023-12-28T09:20:57;9.40;99.90
21770;DHT22;11046;49.558;8.674;2023-12-28T09:24:00;9.40;99.90
21770;DHT22;11046;49.558;8.674;2023-12-28T09:27:03;9.40;99.90
21770;DHT22;11046;49.558;8.674;2023-12-28T09:30:05;9.30;99.90
21770;DHT22;11046;49.558;8.674;2023-12-28T09:33:05;9.30;99.90
21770;DHT22;11046;49.558;8.674;2023-12-28T09:36:06;9.40;99.90
21770;DHT22;11046;49.558;8.674;2023-12-28T09:39:13;9.40;99.90
21770;DHT22;11046;49.558;8.674;2023-12-28T09:42:23;9.40;99.90
21770;DHT22;11046;49.558;8.674;2023-12-28T09:45:25;9.40;99.90
21770;DHT22;11046;49.558;8.674;2023-12-28T09:48:26;9.50;99.90
21770;DHT22;11046;49.558;8.674;2023-12-28T09:51:30;9.50;99.90
21770;DHT22;11046;49.558;8.674;2023-12-28T09:54:31;9.50;99.90
21770;DHT22;11046;49.558;8.674;2023-12-28T09:57:32;9.50;99.90
21770;DHT22;11046;49.558;8.674;2023-12-28T10:00:38;9.50;99.90
21770;DHT22;11046;49.558;8.674;2023-12-28T10:03:44;9.60;99.90
21770;DHT22;11046;49.558;8.674;2023-12-28T10:06:45;9.70;99.90
21770;DHT22;11046;49.558;8.674;2023-12-28T10:09:45;9.70;99.90
21770;DHT22;11046;49.558;8.674;2023-12-28T10:12:46;9.70;99.90
21770;DHT22;11046;49.558;8.674;2023-12-28T10:15:48;9.70;99.90
21770;DHT22;11046;49.558;8.674;2023-12-28T10:18:50;9.60;99.90
21770;DHT22;11046;49.558;8.674;2023-12-28T10:21:51;9.60;99.90
21770;DHT22;11046;49.558;8.674;2023-12-28T10:24:52;9.60;99.90
21770;DHT22;11046;49.558;8.674;2023-12-28T10:27:53;9.70;99.90
21770;DHT22;11046;49.558;8.674;2023-12-28T10:30:57;9.60;99.90
21770;DHT22;11046;49.558;8.674;2023-12-28T10:34:01;9.60;99.90
21770;DHT22;11046;49.558;8.674;2023-12-28T10:37:11;9.60;99.90
21770;DHT22;11046;49.558;8.674;2023-12-28T10:40:13;9.50;99.90
21770;DHT22;11046;49.558;8.674;2023-12-28T10:43:19;9.60;99.90
21770;DHT22;11046;49.558;8.674;2023-12-28T10:46:32;9.60;99.90
21770;DHT22;11046;49.558;8.674;2023-12-28T10:49:35;9.70;99.90
21770;DHT22;11046;49.558;8.674;2023-12-28T10:52:46;9.60;99.90
21770;DHT22;11046;49.558;8.674;2023-12-28T10:59:29;9.70;99.90
21770;DHT22;11046;49.558;8.674;2023-12-28T11:02:38;9.70;99.90
21770;DHT22;11046;49.558;8.674;2023-12-28T11:05:43;9.90;99.90
21770;DHT22;11046;49.558;8.674;2023-12-28T11:08:46;9.90;99.90
21770;DHT22;11046;49.558;8.674;2023-12-28T11:11:51;10.00;99.90
21770;DHT22;11046;49.558;8.674;2023-12-28T11:14:54;10.00;99.90
21770;DHT22;11046;49.558;8.674;2023-12-28T11:17:56;10.20;99.90
21770;DHT22;11046;49.558;8.674;2023-12-28T11:20:56;10.20;99.90
21770;DHT22;11046;49.558;8.674;2023-12-28T11:23:58;10.20;99.90
21770;DHT22;11046;49.558;8.674;2023-12-28T11:26:59;10.20;99.90
21770;DHT22;11046;49.558;8.674;2023-12-28T11:30:00;10.10;99.90
21770;DHT22;11046;49.558;8.674;2023-12-28T11:33:00;10.10;99.90
21770;DHT22;11046;49.558;8.674;2023-12-28T11:36:01;10.00;99.90
21770;DHT22;11046;49.558;8.674;2023-12-28T11:39:06;10.00;99.90
21770;DHT22;11046;49.558;8.674;2023-12-28T11:42:11;10.00;99.90
21770;DHT22;11046;49.558;8.674;2023-12-28T11:45:11;10.10;99.90
21770;DHT22;11046;49.558;8.674;2023-12-28T11:48:25;10.00;99.90
21770;DHT22;11046;49.558;8.674;2023-12-28T11:51:26;10.00;99.90
21770;DHT22;11046;49.558;8.674;2023-12-28T11:54:27;9.90;99.90
21770;DHT22;11046;49.558;8.674;2023-12-28T11:57:29;9.80;99.90
21770;DHT22;11046;49.558;8.674;2023-12-28T12:00:29;9.70;99.90
21770;DHT22;11046;49.558;8.674;2023-12-28T12:03:30;9.70;99.90
21770;DHT22;11046;49.558;8.674;2023-12-28T12:06:30;9.70;99.90
21770;DHT22;11046;49.558;8.674;2023-12-28T12:09:31;9.60;99.90
21770;DHT22;11046;49.558;8.674;2023-12-28T12:12:35;9.50;99.90
21770;DHT22;11046;49.558;8.674;2023-12-28T12:15:35;9.50;99.90
21770;DHT22;11046;49.558;8.674;2023-12-28T12:18:37;9.50;99.90
21770;DHT22;11046;49.558;8.674;2023-12-28T12:21:40;9.50;99.90
21770;DHT22;11046;49.558;8.674;2023-12-28T12:24:50;9.50;99.90
21770;DHT22;11046;49.558;8.674;2023-12-28T12:28:04;9.50;99.90
21770;DHT22;11046;49.558;8.674;2023-12-28T12:31:11;9.50;99.90
21770;DHT22;11046;49.558;8.674;2023-12-28T12:34:20;9.50;99.90
21770;DHT22;11046;49.558;8.674;2023-12-28T12:37:21;9.30;99.90
21770;DHT22;11046;49.558;8.674;2023-12-28T12:40:21;9.20;99.90
21770;DHT22;11046;49.558;8.674;2023-12-28T12:43:25;9.10;99.90
21770;DHT22;11046;49.558;8.674;2023-12-28T12:46:34;9.10;99.90
21770;DHT22;11046;49.558;8.674;2023-12-28T12:49:42;9.00;99.90
21770;DHT22;11046;49.558;8.674;2023-12-28T12:52:44;8.90;99.90
21770;DHT22;11046;49.558;8.674;2023-12-28T12:55:48;9.00;99.90
21770;DHT22;11046;49.558;8.674;2023-12-28T12:58:55;9.00;99.90
21770;DHT22;11046;49.558;8.674;2023-12-28T13:01:56;9.00;99.90
21770;DHT22;11046;49.558;8.674;2023-12-28T13:04:59;9.00;99.90
21770;DHT22;11046;49.558;8.674;2023-12-28T13:08:00;9.10;99.90
21770;DHT22;11046;49.558;8.674;2023-12-28T13:11:03;9.10;99.90
21770;DHT22;11046;49.558;8.674;2023-12-28T13:14:07;9.10;99.90
21770;DHT22;11046;49.558;8.674;2023-12-28T13:17:08;9.00;99.90
21770;DHT22;11046;49.558;8.674;2023-12-28T13:20:09;8.90;99.90
21770;DHT22;11046;49.558;8.674;2023-12-28T13:23:10;8.80;99.90
21770;DHT22;11046;49.558;8.674;2023-12-28T13:26:11;8.90;99.90
21770;DHT22;11046;49.558;8.674;2023-12-28T13:29:11;8.90;99.90
21770;DHT22;11046;49.558;8.674;2023-12-28T13:32:13;8.90;99.90
21770;DHT22;11046;49.558;8.674;2023-12-28T13:35:14;8.90;99.90
21770;DHT22;11046;49.558;8.674;2023-12-28T13:38:15;9.00;99.90
21770;DHT22;11046;49.558;8.674;2023-12-28T13:41:18;8.90;99.90
21770;DHT22;11046;49.558;8.674;2023-12-28T13:44:19;8.80;99.90
21770;DHT22;11046;49.558;8.674;2023-12-28T13:47:19;8.80;99.90
21770;DHT22;11046;49.558;8.674;2023-12-28T13:50:20;8.80;99.90
21770;DHT22;11046;49.558;8.674;2023-12-28T13:53:20;8.80;99.90
21770;DHT22;11046;49.558;8.674;2023-12-28T13:56:21;8.80;99.90
21770;DHT22;11046;49.558;8.674;2023-12-28T13:59:21;8.80;99.90
21770;DHT22;11046;49.558;8.674;2023-12-28T14:02:22;8.80;99.90
21770;DHT22;11046;49.558;8.674;2023-12-28T14:05:23;8.70;99.90
21770;DHT22;11046;49.558;8.674;2023-12-28T14:08:25;8.80;99.90
21770;DHT22;11046;49.558;8.674;2023-12-28T14:11:25;8.80;99.90
21770;DHT22;11046;49.558;8.674;2023-12-28T14:14:26;8.70;99.90
21770;DHT22;11046;49.558;8.674;2023-12-28T14:17:31;8.70;99.90
21770;DHT22;11046;49.558;8.674;2023-12-28T14:20:35;8.70;99.90
21770;DHT22;11046;49.558;8.674;2023-12-28T14:23:36;8.80;99.90
21770;DHT22;11046;49.558;8.674;2023-12-28T14:26:41;8.80;99.90
21770;DHT22;11046;49.558;8.674;2023-12-28T14:29:48;8.80;99.90
21770;DHT22;11046;49.558;8.674;2023-12-28T14:32:51;8.80;99.90
21770;DHT22;11046;49.558;8.674;2023-12-28T14:35:52;8.80;99.90
21770;DHT22;11046;49.558;8.674;2023-12-28T14:38:55;8.80;99.90
21770;DHT22;11046;49.558;8.674;2023-12-28T14:41:59;8.70;99.90
21770;DHT22;11046;49.558;8.674;2023-12-28T14:45:04;8.70;99.90
21770;DHT22;11046;49.558;8.674;2023-12-28T14:48:14;8.70;99.90
21770;DHT22;11046;49.558;8.674;2023-12-28T14:51:14;8.70;99.90
21770;DHT22;11046;49.558;8.674;2023-12-28T14:54:15;8.70;99.90
21770;DHT22;11046;49.558;8.674;2023-12-28T14:57:16;8.80;99.90
21770;DHT22;11046;49.558;8.674;2023-12-28T15:00:17;8.70;99.90
21770;DHT22;11046;49.558;8.674;2023-12-28T15:03:18;8.80;99.90
21770;DHT22;11046;49.558;8.674;2023-12-28T15:06:18;8.80;99.90
21770;DHT22;11046;49.558;8.674;2023-12-28T15:09:19;8.80;99.90
21770;DHT22;11046;49.558;8.674;2023-12-28T15:12:20;8.70;99.90
21770;DHT22;11046;49.558;8.674;2023-12-28T15:15:24;8.80;99.90
21770;DHT22;11046;49.558;8.674;2023-12-28T15:18:29;8.80;99.90
21770;DHT22;11046;49.558;8.674;2023-12-28T15:21:30;8.80;99.90
21770;DHT22;11046;49.558;8.674;2023-12-28T15:24:31;8.80;99.90
21770;DHT22;11046;49.558;8.674;2023-12-28T15:27:37;8.70;99.90
21770;DHT22;11046;49.558;8.674;2023-12-28T15:30:38;8.60;99.90
21770;DHT22;11046;49.558;8.674;2023-12-28T15:33:38;8.50;99.90
21770;DHT22;11046;49.558;8.674;2023-12-28T15:36:39;8.50;99.90
21770;DHT22;11046;49.558;8.674;2023-12-28T15:39:39;8.40;99.90
21770;DHT22;11046;49.558;8.674;2023-12-28T15:42:45;8.50;99.90
21770;DHT22;11046;49.558;8.674;2023-12-28T15:45:45;8.40;99.90
21770;DHT22;11046;49.558;8.674;2023-12-28T15:48:46;8.40;99.90
21770;DHT22;11046;49.558;8.674;2023-12-28T15:51:46;8.40;99.90
21770;DHT22;11046;49.558;8.674;2023-12-28T15:54:47;8.40;99.90
21770;DHT22;11046;49.558;8.674;2023-12-28T15:57:48;8.40;99.90
21770;DHT22;11046;49.558;8.674;2023-12-28T16:00:50;8.40;99.90
21770;DHT22;11046;49.558;8.674;2023-12-28T16:03:51;8.40;99.90
21770;DHT22;11046;49.558;8.674;2023-12-28T16:06:52;8.40;99.90
21770;DHT22;11046;49.558;8.674;2023-12-28T16:09:53;8.40;99.90
21770;DHT22;11046;49.558;8.674;2023-12-28T16:12:54;8.40;99.90
21770;DHT22;11046;49.558;8.674;2023-12-28T16:15:56;8.40;99.90
21770;DHT22;11046;49.558;8.674;2023-12-28T16:18:57;8.30;99.90
21770;DHT22;11046;49.558;8.674;2023-12-28T16:21:58;8.30;99.90
21770;DHT22;11046;49.558;8.674;2023-12-28T16:25:02;8.30;99.90
21770;DHT22;11046;49.558;8.674;2023-12-28T16:28:06;8.40;99.90
21770;DHT22;11046;49.558;8.674;2023-12-28T16:31:07;8.40;99.90
21770;DHT22;11046;49.558;8.674;2023-12-28T16:34:08;8.40;99.90
21770;DHT22;11046;49.558;8.674;2023-12-28T16:37:09;8.40;99.90
21770;DHT22;11046;49.558;8.674;2023-12-28T16:40:09;8.40;99.90
21770;DHT22;11046;49.558;8.674;2023-12-28T16:43:10;8.40;99.90
21770;DHT22;11046;49.558;8.674;2023-12-28T16:46:14;8.40;99.90
21770;DHT22;11046;49.558;8.674;2023-12-28T16:49:16;8.40;99.90
21770;DHT22;11046;49.558;8.674;2023-12-28T16:52:17;8.40;99.90
21770;DHT22;11046;49.558;8.674;2023-12-28T16:55:18;8.50;99.90
21770;DHT22;11046;49.558;8.674;2023-12-28T16:58:22;8.50;99.90
21770;DHT22;11046;49.558;8.674;2023-12-28T17:01:22;8.40;99.90
21770;DHT22;11046;49.558;8.674;2023-12-28T17:04:26;8.50;99.90
21770;DHT22;11046;49.558;8.674;2023-12-28T17:07:28;8.50;99.90
21770;DHT22;11046;49.558;8.674;2023-12-28T17:10:38;8.60;99.90
21770;DHT22;11046;49.558;8.674;2023-12-28T17:13:46;8.50;99.90
21770;DHT22;11046;49.558;8.674;2023-12-28T17:16:47;8.70;99.90
21770;DHT22;11046;49.558;8.674;2023-12-28T17:19:52;8.70;99.90
21770;DHT22;11046;49.558;8.674;2023-12-28T17:22:57;8.80;99.90
21770;DHT22;11046;49.558;8.674;2023-12-28T17:26:02;8.80;99.90
21770;DHT22;11046;49.558;8.674;2023-12-28T17:29:05;8.80;99.90
21770;DHT22;11046;49.558;8.674;2023-12-28T17:32:07;8.90;99.90
21770;DHT22;11046;49.558;8.674;2023-12-28T17:35:12;8.80;99.90
21770;DHT22;11046;49.558;8.674;2023-12-28T17:38:13;8.80;99.90
21770;DHT22;11046;49.558;8.674;2023-12-28T17:41:15;8.90;99.90
21770;DHT22;11046;49.558;8.674;2023-12-28T17:44:24;8.90;99.90
21770;DHT22;11046;49.558;8.674;2023-12-28T17:47:44;8.80;99.90
21770;DHT22;11046;49.558;8.674;2023-12-28T17:50:50;8.90;99.90
21770;DHT22;11046;49.558;8.674;2023-12-28T17:53:51;8.80;99.90
21770;DHT22;11046;49.558;8.674;2023-12-28T17:56:53;8.80;99.90
21770;DHT22;11046;49.558;8.674;2023-12-28T17:59:56;8.80;99.90
21770;DHT22;11046;49.558;8.674;2023-12-28T18:02:57;8.80;99.90
21770;DHT22;11046;49.558;8.674;2023-12-28T18:05:57;8.80;99.90
21770;DHT22;11046;49.558;8.674;2023-12-28T18:08:58;8.80;99.90
21770;DHT22;11046;49.558;8.674;2023-12-28T18:11:58;8.80;99.90
21770;DHT22;11046;49.558;8.674;2023-12-28T18:14:59;8.80;99.90
21770;DHT22;11046;49.558;8.674;2023-12-28T18:18:00;8.80;99.90
21770;DHT22;11046;49.558;8.674;2023-12-28T18:21:01;8.80;99.90
21770;DHT22;11046;49.558;8.674;2023-12-28T18:24:01;8.80;99.90
21770;DHT22;11046;49.558;8.674;2023-12-28T18:27:02;8.90;99.90
21770;DHT22;11046;49.558;8.674;2023-12-28T18:30:03;8.80;99.90
21770;DHT22;11046;49.558;8.674;2023-12-28T18:33:04;8.80;99.90
21770;DHT22;11046;49.558;8.674;2023-12-28T18:36:05;8.80;99.90
21770;DHT22;11046;49.558;8.674;2023-12-28T18:39:08;8.80;99.90
21770;DHT22;11046;49.558;8.674;2023-12-28T18:42:10;8.90;99.90
21770;DHT22;11046;49.558;8.674;2023-12-28T18:45:10;8.80;99.90
21770;DHT22;11046;49.558;8.674;2023-12-28T18:48:15;8.80;99.90
21770;DHT22;11046;49.558;8.674;2023-12-28T18:51:16;8.70;99.90
21770;DHT22;11046;49.558;8.674;2023-12-28T18:54:18;8.70;99.90
21770;DHT22;11046;49.558;8.674;2023-12-28T18:57:18;8.70;99.90
21770;DHT22;11046;49.558;8.674;2023-12-28T19:00:23;8.70;99.90
21770;DHT22;11046;49.558;8.674;2023-12-28T19:03:23;8.60;99.90
21770;DHT22;11046;49.558;8.674;2023-12-28T19:06:28;8.60;99.90
21770;DHT22;11046;49.558;8.674;2023-12-28T19:09:28;8.50;99.90
21770;DHT22;11046;49.558;8.674;2023-12-28T19:12:31;8.50;99.90
21770;DHT22;11046;49.558;8.674;2023-12-28T19:15:31;8.60;99.90
21770;DHT22;11046;49.558;8.674;2023-12-28T19:18:32;8.60;99.90
21770;DHT22;11046;49.558;8.674;2023-12-28T19:21:33;8.60;99.90
21770;DHT22;11046;49.558;8.674;2023-12-28T19:24:33;8.50;99.90
21770;DHT22;11046;49.558;8.674;2023-12-28T19:27:34;8.60;99.90
21770;DHT22;11046;49.558;8.674;2023-12-28T19:30:35;8.50;99.90
21770;DHT22;11046;49.558;8.674;2023-12-28T19:33:35;8.50;99.90
21770;DHT22;11046;49.558;8.674;2023-12-28T19:36:36;8.50;99.90
21770;DHT22;11046;49.558;8.674;2023-12-28T19:39:36;8.50;99.90